Time;durP1;ratioP1;P1;durP2;ratioP2;P2;SDS_P1;SDS_P2;PMS_P1;PMS_P2;Temp;Humidity;BMP_temperature;BMP_pressure;BME280_temperature;BME280_humidity;BME280_pressure;Samples;Min_cycle;Max_cycle;Signal;HPM_P1;HPM_P2
2021/06/13 00:01:17;;;;;;;7.63;4.80;;;13.40;99.90;;;;;;5053601;28;20221;-76
2021/06/13 00:03:42;;;;;;;4.67;3.43;;;13.40;99.90;;;;;;5053825;28;20167;-76
2021/06/13 00:06:08;;;;;;;13.30;3.20;;;13.40;99.90;;;;;;5053643;28;20171;-75
2021/06/13 00:08:33;;;;;;;8.70;3.50;;;13.40;99.90;;;;;;5053832;28;20264;-74
2021/06/13 00:11:00;;;;;;;6.10;3.27;;;13.40;99.90;;;;;;5054034;28;20254;-75
2021/06/13 00:13:26;;;;;;;7.73;4.30;;;13.40;99.90;;;;;;5053870;28;20214;-75
2021/06/13 00:15:52;;;;;;;7.37;3.83;;;13.40;99.90;;;;;;5053725;28;20445;-75
2021/06/13 00:18:19;;;;;;;13.27;4.10;;;13.30;99.90;;;;;;5053766;28;20507;-75
2021/06/13 00:20:45;;;;;;;4.53;3.57;;;13.30;99.90;;;;;;5053858;28;20573;-75
2021/06/13 00:23:11;;;;;;;4.13;3.20;;;13.20;99.90;;;;;;5053532;28;20727;-75
2021/06/13 00:25:36;;;;;;;7.70;2.90;;;13.30;99.90;;;;;;5053326;28;20930;-76
2021/06/13 00:28:03;;;;;;;3.50;2.70;;;13.10;99.90;;;;;;5053189;28;20199;-76
2021/06/13 00:30:29;;;;;;;9.50;4.20;;;13.10;99.90;;;;;;5053002;28;20237;-76
2021/06/13 00:32:54;;;;;;;4.10;3.00;;;13.20;99.90;;;;;;5053119;28;20409;-76
2021/06/13 00:35:22;;;;;;;6.40;3.10;;;13.10;99.90;;;;;;5053101;28;20182;-77
2021/06/13 00:37:49;;;;;;;4.77;2.30;;;13.10;99.90;;;;;;5053021;28;20167;-75
2021/06/13 00:40:18;;;;;;;9.93;3.60;;;13.10;99.90;;;;;;5053088;28;20512;-76
2021/06/13 00:42:44;;;;;;;7.00;3.43;;;13.10;99.90;;;;;;5034909;28;20526;-75
2021/06/13 00:45:10;;;;;;;4.57;2.30;;;13.10;99.90;;;;;;5052927;28;20777;-74
2021/06/13 00:47:36;;;;;;;9.73;3.10;;;13.00;99.90;;;;;;5052794;28;20464;-75
2021/06/13 00:50:08;;;;;;;5.47;3.00;;;13.00;99.90;;;;;;5052843;28;20412;-76
2021/06/13 00:52:33;;;;;;;7.50;4.20;;;13.00;99.90;;;;;;5052646;28;20467;-76
2021/06/13 00:54:59;;;;;;;4.57;3.27;;;13.00;99.90;;;;;;5052932;28;20822;-76
2021/06/13 00:57:25;;;;;;;7.27;2.33;;;13.00;99.90;;;;;;5052653;28;20227;-75
2021/06/13 00:59:51;;;;;;;6.00;2.50;;;12.90;99.90;;;;;;5052687;28;20421;-76
2021/06/13 01:02:16;;;;;;;3.37;2.93;;;12.80;99.90;;;;;;5052463;28;20253;-76
2021/06/13 01:04:42;;;;;;;5.00;3.00;;;12.80;99.90;;;;;;5052626;28;20518;-76
2021/06/13 01:07:18;;;;;;;4.80;2.67;;;12.80;99.90;;;;;;5052486;28;20232;-76
2021/06/13 01:09:55;;;;;;;3.50;3.10;;;12.80;99.90;;;;;;5052465;28;20206;-77
2021/06/13 01:12:27;;;;;;;7.63;3.43;;;12.80;99.90;;;;;;5034720;28;20405;-76
2021/06/13 01:15:02;;;;;;;8.80;3.00;;;12.80;99.90;;;;;;5050872;28;20426;-77
2021/06/13 01:17:51;;;;;;;14.57;2.80;;;12.90;99.90;;;;;;5052288;28;20903;-77
2021/06/13 01:20:29;;;;;;;4.53;2.80;;;12.90;99.90;;;;;;5052128;28;20422;-75
2021/06/13 01:23:32;;;;;;;5.47;3.00;;;12.80;99.90;;;;;;5052328;28;20512;-75
2021/06/13 01:26:10;;;;;;;5.37;3.20;;;12.70;99.90;;;;;;5053111;28;20405;-75
2021/06/13 01:28:55;;;;;;;5.83;3.03;;;12.80;99.90;;;;;;5037018;28;20496;-76
2021/06/13 01:31:24;;;;;;;5.80;3.20;;;12.70;99.90;;;;;;5054009;28;20451;-76
2021/06/13 01:33:52;;;;;;;7.80;2.60;;;12.60;99.90;;;;;;5053415;28;20413;-76
2021/06/13 01:36:18;;;;;;;4.77;2.63;;;12.60;99.90;;;;;;5051991;28;20414;-77
2021/06/13 01:38:47;;;;;;;6.77;2.70;;;12.50;99.90;;;;;;5052078;28;20414;-76
2021/06/13 01:41:20;;;;;;;7.43;3.30;;;12.50;99.90;;;;;;5051703;28;20433;-76
2021/06/13 01:43:47;;;;;;;4.63;3.43;;;12.70;99.90;;;;;;5051293;28;20475;-76
2021/06/13 01:46:14;;;;;;;3.50;2.93;;;12.60;99.90;;;;;;5051754;28;20405;-76
2021/06/13 01:48:40;;;;;;;4.40;2.57;;;12.60;99.90;;;;;;5051666;28;20551;-76
2021/06/13 01:51:06;;;;;;;6.90;3.47;;;12.50;99.90;;;;;;5051611;28;20444;-75
2021/06/13 01:53:41;;;;;;;6.40;3.00;;;12.50;99.90;;;;;;5051717;28;20405;-76
2021/06/13 01:56:10;;;;;;;8.47;2.87;;;12.50;99.90;;;;;;5033995;28;20419;-76
2021/06/13 01:58:36;;;;;;;6.93;2.77;;;12.50;99.90;;;;;;5051593;28;20397;-75
2021/06/13 02:01:06;;;;;;;8.00;2.80;;;12.50;99.90;;;;;;5051434;28;20468;-75
2021/06/13 02:03:34;;;;;;;6.73;3.00;;;12.40;99.90;;;;;;5051697;28;20475;-75
2021/06/13 02:06:02;;;;;;;7.13;3.67;;;12.50;99.90;;;;;;5051495;28;20425;-75
2021/06/13 02:08:34;;;;;;;3.20;2.30;;;12.60;99.90;;;;;;5051310;28;20453;-76
2021/06/13 02:11:03;;;;;;;4.70;2.73;;;12.50;99.90;;;;;;5051340;28;20456;-76
2021/06/13 02:13:30;;;;;;;9.27;3.20;;;12.50;99.90;;;;;;5051361;28;20855;-75
2021/06/13 02:15:56;;;;;;;8.33;3.03;;;12.50;99.90;;;;;;5051253;28;20425;-76
2021/06/13 02:18:24;;;;;;;5.60;3.63;;;12.50;99.90;;;;;;5051165;28;20856;-76
2021/06/13 02:20:50;;;;;;;7.50;3.27;;;12.40;99.90;;;;;;5051044;28;20433;-75
2021/06/13 02:23:16;;;;;;;5.17;3.30;;;12.40;99.90;;;;;;5051271;28;20504;-75
2021/06/13 02:25:42;;;;;;;7.40;3.40;;;12.50;99.90;;;;;;5051168;28;20489;-75
2021/06/13 02:28:07;;;;;;;4.40;3.03;;;12.50;99.90;;;;;;5032991;28;20456;-75
2021/06/13 02:30:37;;;;;;;6.20;3.50;;;12.40;99.90;;;;;;5033313;28;20254;-76
2021/06/13 02:33:04;;;;;;;7.27;2.73;;;12.40;99.90;;;;;;5051175;28;20174;-76
2021/06/13 02:35:29;;;;;;;3.50;3.13;;;12.30;99.90;;;;;;5051072;28;20417;-76
2021/06/13 02:37:59;;;;;;;5.60;2.90;;;12.30;99.90;;;;;;5050875;28;20782;-75
2021/06/13 02:40:26;;;;;;;5.77;3.27;;;12.30;99.90;;;;;;5051030;28;20198;-76
2021/06/13 02:42:52;;;;;;;7.20;2.87;;;12.30;99.90;;;;;;5050875;28;20397;-76
2021/06/13 02:45:21;;;;;;;7.83;4.37;;;12.20;99.90;;;;;;5051009;28;20912;-76
2021/06/13 02:47:47;;;;;;;12.30;3.50;;;12.20;99.90;;;;;;5050713;28;20236;-75
2021/06/13 02:50:13;;;;;;;6.70;3.17;;;12.20;99.90;;;;;;5051052;28;20449;-75
2021/06/13 02:52:47;;;;;;;3.90;2.90;;;12.10;99.90;;;;;;5051024;28;20990;-76
2021/06/13 02:55:24;;;;;;;5.77;3.10;;;12.20;99.90;;;;;;5052686;28;20169;-76
2021/06/13 02:58:02;;;;;;;5.83;3.07;;;12.20;99.90;;;;;;5054922;28;20409;-76
2021/06/13 03:00:28;;;;;;;4.53;2.80;;;12.10;99.90;;;;;;5054844;28;20440;-75
2021/06/13 03:02:55;;;;;;;5.80;2.87;;;12.10;99.90;;;;;;5054844;28;20500;-76
2021/06/13 03:05:24;;;;;;;5.40;4.07;;;12.00;99.90;;;;;;5054953;28;20508;-76
2021/06/13 03:07:51;;;;;;;4.87;3.00;;;12.00;99.90;;;;;;5054681;28;20448;-76
2021/06/13 03:10:17;;;;;;;3.83;2.97;;;12.00;99.90;;;;;;5054665;28;20420;-75
2021/06/13 03:12:43;;;;;;;5.67;3.83;;;11.90;99.90;;;;;;5054387;28;20973;-76
2021/06/13 03:15:09;;;;;;;9.80;3.80;;;11.90;99.90;;;;;;5054780;28;20408;-77
2021/06/13 03:17:37;;;;;;;7.43;2.83;;;11.90;99.90;;;;;;5054594;28;20467;-76
2021/06/13 03:20:05;;;;;;;4.33;3.07;;;11.90;99.90;;;;;;5054896;28;20765;-77
2021/06/13 03:22:33;;;;;;;7.20;3.97;;;11.90;99.90;;;;;;5064345;28;20393;-77
2021/06/13 03:25:00;;;;;;;8.20;3.70;;;11.90;99.90;;;;;;5066173;28;20405;-77
2021/06/13 03:27:26;;;;;;;6.50;4.27;;;12.00;99.90;;;;;;5066128;28;20401;-77
2021/06/13 03:29:52;;;;;;;5.10;2.80;;;12.00;99.90;;;;;;5065783;28;20512;-77
2021/06/13 03:32:20;;;;;;;11.13;3.57;;;12.00;99.90;;;;;;5057886;28;20427;-77
2021/06/13 03:34:46;;;;;;;8.77;3.00;;;12.10;99.90;;;;;;5055035;28;20769;-77
2021/06/13 03:37:13;;;;;;;7.00;3.57;;;12.00;99.90;;;;;;5063847;28;20425;-77
2021/06/13 03:39:44;;;;;;;5.97;3.20;;;12.00;99.90;;;;;;5067405;28;20405;-75
2021/06/13 03:42:14;;;;;;;6.83;3.30;;;11.90;99.90;;;;;;5060163;28;20998;-74
2021/06/13 03:44:41;;;;;;;4.67;3.60;;;11.90;99.90;;;;;;5054943;28;20436;-75
2021/06/13 03:47:07;;;;;;;7.53;3.87;;;11.90;99.90;;;;;;5054731;28;20405;-75
2021/06/13 03:49:34;;;;;;;10.77;3.77;;;12.00;99.90;;;;;;5054961;28;20876;-75
2021/06/13 03:51:59;;;;;;;6.97;2.80;;;12.00;99.90;;;;;;5054899;28;20211;-75
2021/06/13 03:54:25;;;;;;;8.50;3.10;;;12.20;99.90;;;;;;5054892;28;20504;-75
2021/06/13 03:56:58;;;;;;;11.60;4.30;;;12.30;99.90;;;;;;5054774;28;20159;-75
2021/06/13 03:59:25;;;;;;;5.23;3.50;;;12.20;99.90;;;;;;5054448;28;20168;-74
2021/06/13 04:01:53;;;;;;;4.17;2.60;;;12.20;99.90;;;;;;5055463;28;20461;-75
2021/06/13 04:04:19;;;;;;;4.37;2.90;;;12.20;99.90;;;;;;5058243;28;20412;-76
2021/06/13 04:06:47;;;;;;;6.47;2.97;;;12.30;99.90;;;;;;5057016;28;20406;-76
2021/06/13 04:09:14;;;;;;;7.33;3.03;;;12.30;99.90;;;;;;5054914;28;20445;-75
2021/06/13 04:11:41;;;;;;;9.43;3.10;;;12.40;99.90;;;;;;5053740;28;20619;-75
2021/06/13 04:14:13;;;;;;;5.37;3.37;;;12.50;99.90;;;;;;5035748;28;20429;-74
2021/06/13 04:16:46;;;;;;;7.60;3.07;;;12.50;99.90;;;;;;5053697;28;20410;-75
2021/06/13 04:19:12;;;;;;;6.40;2.70;;;12.50;99.90;;;;;;5053597;28;20504;-75
2021/06/13 04:21:39;;;;;;;8.30;2.90;;;12.60;99.90;;;;;;5053292;28;20512;-75
2021/06/13 04:24:09;;;;;;;6.77;2.80;;;12.80;99.90;;;;;;5053492;28;20533;-76
2021/06/13 04:26:37;;;;;;;6.50;4.00;;;12.80;99.90;;;;;;5053432;28;20896;-75
2021/06/13 04:29:02;;;;;;;6.37;3.27;;;12.90;99.90;;;;;;5053577;28;20489;-75
2021/06/13 04:31:29;;;;;;;6.97;3.17;;;13.00;99.90;;;;;;5053252;28;20464;-75
2021/06/13 04:33:55;;;;;;;10.03;3.00;;;13.20;99.90;;;;;;5051884;28;20166;-76
2021/06/13 04:36:21;;;;;;;5.17;2.40;;;13.20;99.90;;;;;;5052895;28;20410;-76
2021/06/13 04:38:47;;;;;;;6.10;2.83;;;13.10;99.90;;;;;;5053147;28;20476;-76
2021/06/13 04:41:13;;;;;;;5.10;2.87;;;13.20;99.90;;;;;;5052981;28;20424;-76
2021/06/13 04:43:39;;;;;;;10.07;3.17;;;13.10;99.90;;;;;;5053074;28;20248;-76
2021/06/13 04:46:05;;;;;;;5.93;2.83;;;13.30;99.90;;;;;;5035176;28;20521;-76
2021/06/13 04:48:31;;;;;;;7.27;3.97;;;13.00;99.90;;;;;;5052719;28;20441;-75
2021/06/13 04:51:07;;;;;;;8.47;2.77;;;12.90;99.90;;;;;;5052743;28;20414;-76
2021/06/13 04:53:47;;;;;;;5.80;3.10;;;12.90;99.90;;;;;;5052929;28;20439;-75
2021/06/13 04:56:40;;;;;;;7.00;4.03;;;13.00;99.90;;;;;;5052646;28;20904;-76
2021/06/13 04:59:06;;;;;;;5.97;3.30;;;12.90;99.90;;;;;;5052614;28;20433;-76
2021/06/13 05:01:33;;;;;;;5.90;2.87;;;13.00;99.90;;;;;;5052556;28;20954;-75
2021/06/13 05:03:58;;;;;;;8.40;3.23;;;13.00;99.90;;;;;;5052711;28;20580;-75
2021/06/13 05:06:24;;;;;;;6.80;2.90;;;13.00;99.90;;;;;;5052529;28;20408;-76
2021/06/13 05:08:50;;;;;;;5.83;2.67;;;13.10;99.90;;;;;;5052771;28;20218;-76
2021/06/13 05:11:17;;;;;;;8.70;3.30;;;13.20;99.90;;;;;;5053000;28;20424;-76
2021/06/13 05:13:42;;;;;;;8.10;3.17;;;13.20;99.90;;;;;;5052374;28;20474;-76
2021/06/13 05:16:09;;;;;;;4.57;2.90;;;13.10;99.90;;;;;;5052905;28;20406;-76
2021/06/13 05:18:35;;;;;;;6.07;3.00;;;12.90;99.90;;;;;;5052071;28;20163;-76
2021/06/13 05:21:00;;;;;;;14.37;4.50;;;13.00;99.90;;;;;;5052797;28;20436;-76
2021/06/13 05:23:26;;;;;;;8.57;3.43;;;13.00;99.90;;;;;;5052765;28;20912;-76
2021/06/13 05:25:54;;;;;;;9.73;3.03;;;13.10;99.90;;;;;;5052511;28;20642;-76
2021/06/13 05:28:22;;;;;;;6.10;3.20;;;13.00;99.90;;;;;;5052292;28;20829;-76
2021/06/13 05:30:48;;;;;;;5.30;2.67;;;13.20;99.90;;;;;;5052287;28;20455;-76
2021/06/13 05:33:14;;;;;;;5.30;2.90;;;13.20;99.90;;;;;;5052447;28;20909;-76
2021/06/13 05:35:40;;;;;;;7.77;3.00;;;13.30;99.90;;;;;;5034281;28;20420;-77
2021/06/13 05:38:07;;;;;;;5.87;2.70;;;13.30;99.90;;;;;;5033961;28;20274;-77
2021/06/13 05:40:33;;;;;;;9.13;3.20;;;13.40;99.90;;;;;;5034067;28;20434;-76
2021/06/13 05:42:59;;;;;;;5.37;3.77;;;13.30;99.90;;;;;;5051746;28;20448;-76
2021/06/13 05:45:28;;;;;;;6.17;2.80;;;13.60;99.90;;;;;;5051897;28;20441;-76
2021/06/13 05:47:54;;;;;;;10.40;3.20;;;13.50;99.90;;;;;;5051890;28;20244;-76
2021/06/13 05:50:20;;;;;;;5.47;2.70;;;13.50;99.90;;;;;;5051994;28;20504;-77
2021/06/13 05:52:47;;;;;;;7.10;3.23;;;13.70;99.90;;;;;;5050376;28;20420;-76
2021/06/13 05:55:13;;;;;;;7.80;2.73;;;13.70;99.90;;;;;;5051794;28;20969;-76
2021/06/13 05:57:39;;;;;;;6.10;3.43;;;13.50;99.90;;;;;;5051608;28;20408;-76
2021/06/13 06:00:17;;;;;;;5.63;2.93;;;13.40;99.90;;;;;;5051405;28;20519;-76
2021/06/13 06:02:43;;;;;;;8.43;3.00;;;13.50;99.90;;;;;;5051619;28;20224;-75
2021/06/13 06:05:10;;;;;;;7.27;2.57;;;13.30;99.90;;;;;;5051554;28;20817;-75
2021/06/13 06:07:35;;;;;;;10.90;3.53;;;13.40;99.90;;;;;;5051254;28;20241;-76
2021/06/13 06:10:02;;;;;;;6.20;2.63;;;13.50;99.90;;;;;;5051193;28;20924;-76
2021/06/13 06:12:27;;;;;;;8.17;3.80;;;13.80;99.90;;;;;;5051249;28;20197;-76
2021/06/13 06:14:53;;;;;;;6.43;4.10;;;14.00;99.90;;;;;;5033351;28;20449;-76
2021/06/13 06:17:18;;;;;;;4.47;2.57;;;13.70;99.90;;;;;;5051168;28;20175;-76
2021/06/13 06:19:44;;;;;;;3.77;2.70;;;13.70;99.90;;;;;;5051251;28;20578;-76
2021/06/13 06:22:09;;;;;;;7.80;2.97;;;13.70;99.90;;;;;;5051230;28;20445;-76
2021/06/13 06:24:35;;;;;;;5.40;2.80;;;13.80;99.90;;;;;;5051190;28;20171;-76
2021/06/13 06:27:01;;;;;;;8.90;2.90;;;13.80;99.90;;;;;;5033308;28;20634;-75
2021/06/13 06:29:27;;;;;;;5.43;2.77;;;13.90;99.90;;;;;;5051159;28;20256;-76
2021/06/13 06:31:53;;;;;;;9.83;2.83;;;13.80;99.90;;;;;;5051513;28;20221;-76
2021/06/13 06:34:19;;;;;;;4.27;2.13;;;13.90;99.90;;;;;;5051756;28;20246;-77
2021/06/13 06:36:44;;;;;;;8.70;2.50;;;13.90;99.90;;;;;;5051051;28;20612;-77
2021/06/13 06:39:10;;;;;;;5.30;2.47;;;14.00;99.90;;;;;;5050912;28;20462;-77
2021/06/13 06:41:37;;;;;;;6.87;3.33;;;13.90;99.90;;;;;;5050882;28;20512;-78
2021/06/13 06:44:07;;;;;;;6.87;2.77;;;14.20;99.90;;;;;;5051011;28;20848;-76
2021/06/13 06:46:33;;;;;;;5.33;2.37;;;14.10;99.90;;;;;;5050966;28;20784;-75
2021/06/13 06:48:58;;;;;;;8.03;2.80;;;14.00;99.90;;;;;;5050906;28;20445;-76
2021/06/13 06:51:26;;;;;;;5.27;3.10;;;14.40;99.90;;;;;;5050882;28;20195;-76
2021/06/13 06:53:58;;;;;;;5.67;3.20;;;14.40;99.90;;;;;;5050939;28;20163;-77
2021/06/13 06:56:25;;;;;;;4.70;2.63;;;14.60;99.90;;;;;;5050891;28;20402;-77
2021/06/13 06:58:51;;;;;;;8.63;2.40;;;14.40;99.90;;;;;;5051045;28;20470;-77
2021/06/13 07:01:16;;;;;;;7.93;2.90;;;14.60;99.90;;;;;;5052341;28;20429;-77
2021/06/13 07:03:42;;;;;;;6.53;2.70;;;14.60;99.90;;;;;;5051273;28;20748;-77
2021/06/13 07:06:08;;;;;;;3.60;2.00;;;14.60;99.90;;;;;;5050717;28;20167;-77
2021/06/13 07:08:33;;;;;;;3.93;2.40;;;14.80;99.90;;;;;;5050551;28;21036;-77
2021/06/13 07:10:59;;;;;;;4.60;2.60;;;15.20;99.90;;;;;;5050747;28;20712;-78
2021/06/13 07:13:24;;;;;;;10.63;2.60;;;14.90;99.90;;;;;;5050950;28;20186;-76
2021/06/13 07:15:50;;;;;;;7.47;3.47;;;14.90;99.90;;;;;;5051209;28;20182;-76
2021/06/13 07:18:15;;;;;;;6.20;2.20;;;15.20;99.90;;;;;;5051570;28;20200;-76
2021/06/13 07:20:41;;;;;;;7.63;2.53;;;15.50;99.90;;;;;;5059265;28;20207;-76
2021/06/13 07:23:07;;;;;;;5.40;2.13;;;15.00;99.90;;;;;;5059014;28;20186;-77
2021/06/13 07:25:33;;;;;;;6.63;2.50;;;15.20;99.90;;;;;;5057416;28;20397;-76
2021/06/13 07:27:58;;;;;;;5.77;2.47;;;15.50;99.90;;;;;;5040193;28;20666;-77
2021/06/13 07:30:24;;;;;;;4.93;3.40;;;15.80;99.90;;;;;;5053288;28;20191;-77
2021/06/13 07:32:50;;;;;;;6.40;2.50;;;15.90;99.90;;;;;;5051438;28;20168;-77
2021/06/13 07:35:18;;;;;;;7.67;2.63;;;16.00;99.90;;;;;;5050693;28;20172;-76
2021/06/13 07:37:45;;;;;;;3.30;2.00;;;16.30;99.90;;;;;;5050312;28;20616;-77
2021/06/13 07:40:13;;;;;;;7.43;2.50;;;16.30;99.90;;;;;;5032718;28;20437;-76
2021/06/13 07:42:38;;;;;;;5.47;2.50;;;15.90;99.90;;;;;;5054565;28;20503;-75
2021/06/13 07:45:08;;;;;;;5.63;2.40;;;15.90;99.90;;;;;;5054471;28;20448;-77
2021/06/13 07:47:34;;;;;;;8.40;2.30;;;16.00;99.90;;;;;;5054400;28;20511;-76
2021/06/13 07:49:59;;;;;;;6.23;2.80;;;15.90;99.90;;;;;;5054469;28;20468;-77
2021/06/13 07:52:26;;;;;;;4.23;2.40;;;15.70;99.90;;;;;;5054953;28;20167;-77
2021/06/13 07:54:52;;;;;;;5.93;2.87;;;16.00;99.90;;;;;;5054935;28;20238;-77
2021/06/13 07:57:18;;;;;;;5.07;2.30;;;16.20;99.90;;;;;;5054855;28;20400;-76
2021/06/13 07:59:43;;;;;;;4.70;2.20;;;16.10;99.90;;;;;;5038573;28;20481;-76
2021/06/13 08:02:10;;;;;;;6.20;2.90;;;15.80;99.90;;;;;;5054876;28;20191;-76
2021/06/13 08:04:37;;;;;;;6.83;2.80;;;15.80;99.90;;;;;;5054828;28;20588;-77
2021/06/13 08:07:03;;;;;;;9.40;3.13;;;15.80;99.90;;;;;;5055134;28;20918;-77
2021/06/13 08:09:29;;;;;;;5.33;2.43;;;16.30;99.90;;;;;;5055594;28;20492;-76
2021/06/13 08:11:54;;;;;;;9.70;3.47;;;16.20;99.90;;;;;;5060755;28;20424;-76
2021/06/13 08:14:20;;;;;;;4.83;2.47;;;16.10;99.90;;;;;;5062230;28;20210;-76
2021/06/13 08:16:46;;;;;;;6.50;2.53;;;16.10;99.90;;;;;;5059256;28;20224;-77
2021/06/13 08:19:11;;;;;;;4.63;1.70;;;16.30;99.90;;;;;;5056229;28;20522;-77
2021/06/13 08:21:37;;;;;;;3.53;2.00;;;16.70;99.90;;;;;;5054918;28;20624;-77
2021/06/13 08:24:04;;;;;;;3.37;1.90;;;16.80;99.90;;;;;;5054179;28;20179;-76
2021/06/13 08:26:31;;;;;;;7.53;2.53;;;17.30;99.90;;;;;;5053896;28;20407;-76
2021/06/13 08:29:01;;;;;;;5.70;2.20;;;17.60;99.90;;;;;;5036019;28;20457;-76
2021/06/13 08:31:27;;;;;;;5.40;2.10;;;17.70;99.90;;;;;;5053567;28;20428;-76
2021/06/13 08:33:52;;;;;;;3.60;1.90;;;17.90;99.90;;;;;;5053796;28;20407;-76
2021/06/13 08:36:18;;;;;;;2.97;1.87;;;18.40;99.90;;;;;;5053446;28;20257;-76
2021/06/13 08:38:44;;;;;;;3.43;1.60;;;18.00;99.90;;;;;;5053407;28;20167;-76
2021/06/13 08:41:11;;;;;;;5.23;2.37;;;18.60;99.90;;;;;;5053383;28;20196;-76
2021/06/13 08:43:37;;;;;;;3.90;2.43;;;18.10;99.90;;;;;;5053735;28;20489;-76
2021/06/13 08:46:04;;;;;;;3.50;2.60;;;17.50;99.90;;;;;;5053778;28;20552;-76
2021/06/13 08:48:31;;;;;;;6.37;2.70;;;17.30;99.90;;;;;;5054369;28;20575;-76
2021/06/13 08:50:58;;;;;;;7.37;2.80;;;17.60;99.90;;;;;;5053245;28;20418;-76
2021/06/13 08:53:25;;;;;;;7.10;2.40;;;17.20;99.90;;;;;;5053424;28;20489;-76
2021/06/13 08:55:51;;;;;;;7.53;2.90;;;17.10;99.90;;;;;;5035397;28;20431;-76
2021/06/13 08:58:17;;;;;;;5.50;2.37;;;17.20;99.90;;;;;;5053437;28;20450;-76
2021/06/13 09:00:42;;;;;;;4.17;2.27;;;16.90;99.90;;;;;;5053554;28;20424;-76
2021/06/13 09:03:08;;;;;;;8.10;2.80;;;16.10;99.90;;;;;;5053242;28;20883;-76
2021/06/13 09:05:34;;;;;;;5.77;2.97;;;15.60;99.90;;;;;;5035065;28;20171;-76
2021/06/13 09:08:06;;;;;;;4.17;2.37;;;15.60;99.90;;;;;;5052838;28;20206;-77
2021/06/13 09:10:31;;;;;;;7.23;3.63;;;15.90;99.90;;;;;;5035127;28;20483;-77
2021/06/13 09:13:11;;;;;;;3.53;2.83;;;16.10;99.90;;;;;;5052636;28;20924;-76
2021/06/13 09:15:51;;;;;;;8.07;3.30;;;15.90;99.90;;;;;;5052982;28;20209;-77
2021/06/13 09:18:33;;;;;;;6.00;2.83;;;15.60;99.90;;;;;;5052791;28;20491;-76
2021/06/13 09:20:59;;;;;;;9.40;2.60;;;15.70;99.90;;;;;;5034765;28;20561;-75
2021/06/13 09:23:29;;;;;;;4.53;2.63;;;15.90;99.90;;;;;;5053139;28;20929;-77
2021/06/13 09:26:03;;;;;;;4.20;2.77;;;16.10;99.90;;;;;;5052550;28;20795;-77
2021/06/13 09:28:32;;;;;;;9.20;3.07;;;16.30;99.90;;;;;;5052207;28;20458;-76
2021/06/13 09:30:58;;;;;;;6.93;3.00;;;16.10;99.90;;;;;;5052276;28;20511;-76
2021/06/13 09:33:28;;;;;;;10.60;3.50;;;15.70;99.90;;;;;;5052251;28;20452;-76
2021/06/13 09:35:55;;;;;;;7.70;3.50;;;15.30;99.90;;;;;;5052145;28;20174;-76
2021/06/13 09:38:38;;;;;;;4.80;3.23;;;15.00;99.90;;;;;;5052375;28;20422;-76
2021/06/13 09:41:15;;;;;;;10.93;2.87;;;15.00;99.90;;;;;;5052218;28;20484;-77
2021/06/13 09:43:53;;;;;;;7.07;2.60;;;14.90;99.90;;;;;;5052237;28;20405;-76
2021/06/13 09:46:24;;;;;;;5.27;2.63;;;14.60;99.90;;;;;;5052300;28;20845;-76
2021/06/13 09:48:56;;;;;;;4.03;2.53;;;14.60;99.90;;;;;;5051936;28;20827;-77
2021/06/13 09:51:27;;;;;;;7.80;4.50;;;14.40;99.90;;;;;;5051729;28;20444;-76
2021/06/13 09:53:56;;;;;;;9.37;3.50;;;14.10;99.90;;;;;;5052070;28;20411;-75
2021/06/13 09:56:26;;;;;;;7.07;3.03;;;14.30;99.90;;;;;;5050483;28;20418;-76
2021/06/13 09:59:18;;;;;;;5.47;3.47;;;14.90;99.90;;;;;;5051799;28;20769;-77
2021/06/13 10:01:51;;;;;;;7.83;3.33;;;15.10;99.90;;;;;;5051560;28;20425;-76
2021/06/13 10:04:23;;;;;;;7.87;2.83;;;15.60;99.90;;;;;;5033338;28;20421;-77
2021/06/13 10:06:52;;;;;;;8.83;2.80;;;15.50;99.90;;;;;;5051504;28;20406;-76
2021/06/13 10:09:19;;;;;;;4.70;2.37;;;15.90;99.90;;;;;;5051801;28;20453;-76
2021/06/13 10:11:47;;;;;;;4.77;3.13;;;16.30;99.90;;;;;;5051161;28;20484;-76
2021/06/13 10:14:16;;;;;;;6.03;2.80;;;16.50;99.90;;;;;;5051470;28;20818;-75
2021/06/13 10:16:51;;;;;;;7.10;3.40;;;16.00;99.90;;;;;;5051468;28;20461;-75
2021/06/13 10:19:19;;;;;;;6.07;2.97;;;16.10;99.90;;;;;;5051805;28;20434;-76
2021/06/13 10:21:48;;;;;;;5.50;3.13;;;16.10;99.90;;;;;;5051349;28;20503;-77
2021/06/13 10:24:18;;;;;;;4.60;2.80;;;16.60;99.90;;;;;;5051279;28;20403;-76
2021/06/13 10:26:49;;;;;;;5.50;2.70;;;16.50;99.90;;;;;;5051303;28;20511;-76
2021/06/13 10:29:16;;;;;;;5.07;3.30;;;16.60;99.90;;;;;;5051300;28;20511;-75
2021/06/13 10:31:47;;;;;;;4.80;2.37;;;16.70;99.90;;;;;;5033164;28;20449;-76
2021/06/13 10:34:14;;;;;;;6.20;2.33;;;16.60;99.90;;;;;;5051269;28;20490;-75
2021/06/13 10:36:41;;;;;;;5.17;3.10;;;16.80;99.90;;;;;;5051572;28;20403;-76
2021/06/13 10:39:09;;;;;;;6.97;2.80;;;16.70;99.90;;;;;;5051297;28;20410;-76
2021/06/13 10:41:35;;;;;;;6.77;2.73;;;16.70;99.90;;;;;;5051276;28;20521;-76
2021/06/13 10:44:21;;;;;;;5.17;3.40;;;17.00;99.90;;;;;;5051341;28;20793;-75
2021/06/13 10:46:54;;;;;;;4.77;2.40;;;17.10;99.90;;;;;;5051460;28;20398;-77
2021/06/13 10:49:37;;;;;;;6.07;3.10;;;17.10;99.90;;;;;;5051465;28;20462;-75
2021/06/13 10:52:08;;;;;;;3.17;2.30;;;17.40;99.90;;;;;;5051640;28;20486;-76
2021/06/13 10:54:55;;;;;;;6.67;2.63;;;17.10;99.90;;;;;;5033691;28;20421;-76
2021/06/13 10:57:22;;;;;;;3.90;2.40;;;17.00;99.90;;;;;;5051022;28;20426;-75
2021/06/13 10:59:50;;;;;;;10.30;3.00;;;16.70;99.90;;;;;;5051412;28;20410;-76
2021/06/13 11:02:19;;;;;;;8.83;3.50;;;16.60;99.90;;;;;;5051913;28;20459;-77
2021/06/13 11:05:03;;;;;;;6.00;3.57;;;16.70;99.90;;;;;;5051180;28;20408;-76
2021/06/13 11:07:29;;;;;;;8.07;2.90;;;16.80;99.90;;;;;;5051021;28;20497;-75
2021/06/13 11:10:10;;;;;;;8.93;3.13;;;17.00;99.90;;;;;;5051147;28;20537;-76
2021/06/13 11:12:56;;;;;;;4.90;3.10;;;16.80;99.90;;;;;;5051209;28;20212;-76
2021/06/13 11:15:22;;;;;;;5.10;2.97;;;16.80;99.90;;;;;;5033415;28;20803;-75
2021/06/13 11:18:19;;;;;;;6.03;3.70;;;16.70;99.90;;;;;;5037020;28;20425;-76
2021/06/13 11:21:07;;;;;;;6.83;4.10;;;16.60;99.90;;;;;;5054990;28;20247;-76
2021/06/13 11:23:32;;;;;;;7.10;3.50;;;16.80;99.90;;;;;;5054993;28;20944;-76
2021/06/13 11:25:59;;;;;;;7.47;2.70;;;17.00;99.90;;;;;;5054848;28;20423;-76
2021/06/13 11:28:35;;;;;;;5.57;3.50;;;17.00;99.90;;;;;;5054699;28;20252;-76
2021/06/13 11:31:09;;;;;;;7.43;3.43;;;17.00;99.90;;;;;;5054522;28;20448;-76
2021/06/13 11:33:43;;;;;;;3.97;3.37;;;17.20;99.90;;;;;;5036586;28;20406;-76
2021/06/13 11:36:18;;;;;;;5.40;3.13;;;17.70;99.90;;;;;;5054608;28;20858;-76
2021/06/13 11:38:51;;;;;;;6.10;2.80;;;18.10;99.90;;;;;;5054502;28;20472;-76
2021/06/13 11:41:24;;;;;;;5.00;2.90;;;17.90;99.90;;;;;;5054579;28;20498;-76
2021/06/13 11:43:50;;;;;;;7.73;2.97;;;17.70;99.90;;;;;;5036867;28;20462;-76
2021/06/13 11:46:33;;;;;;;5.53;2.70;;;17.90;99.90;;;;;;5054438;28;20418;-77
2021/06/13 11:49:00;;;;;;;10.40;3.23;;;18.10;99.90;;;;;;5053200;28;20258;-76
2021/06/13 11:51:26;;;;;;;7.10;3.40;;;18.20;99.90;;;;;;5054412;28;20486;-76
2021/06/13 11:54:03;;;;;;;7.90;4.00;;;18.40;99.90;;;;;;5054630;28;20777;-76
2021/06/13 11:56:35;;;;;;;7.00;3.20;;;18.40;99.90;;;;;;5055393;28;20778;-76
2021/06/13 11:59:01;;;;;;;6.23;3.90;;;18.50;99.90;;;;;;5054942;28;20420;-75
2021/06/13 12:01:27;;;;;;;6.00;3.53;;;18.40;99.90;;;;;;5054556;28;20951;-75
2021/06/13 12:03:54;;;;;;;7.33;3.30;;;17.90;99.90;;;;;;5054098;28;20416;-75
2021/06/13 12:06:20;;;;;;;6.60;3.60;;;18.30;99.90;;;;;;5055468;28;20772;-76
2021/06/13 12:08:47;;;;;;;7.53;3.50;;;18.70;99.90;;;;;;5055375;28;20467;-75
2021/06/13 12:11:34;;;;;;;5.67;3.43;;;18.30;99.90;;;;;;5056340;28;20603;-75
2021/06/13 12:14:35;;;;;;;8.23;3.47;;;18.50;99.90;;;;;;5056716;28;20859;-75
2021/06/13 12:17:04;;;;;;;5.47;3.00;;;19.00;99.90;;;;;;5037196;28;20408;-76
2021/06/13 12:19:39;;;;;;;5.57;2.83;;;19.00;99.90;;;;;;5055948;28;20943;-76
2021/06/13 12:22:19;;;;;;;6.03;4.00;;;19.20;99.90;;;;;;5054590;28;20416;-76
2021/06/13 12:27:27;;;;;;;7.97;3.20;;;18.90;99.90;;;;;;5052926;28;20442;-76
2021/06/13 12:30:03;;;;;;;7.10;3.87;;;19.20;99.90;;;;;;5053266;28;20198;-75
2021/06/13 12:32:30;;;;;;;5.03;3.20;;;19.30;99.70;;;;;;5053495;28;20385;-75
2021/06/13 12:35:17;;;;;;;11.40;3.67;;;19.40;99.40;;;;;;5053504;28;20922;-76
2021/06/13 12:37:57;;;;;;;6.07;3.07;;;19.30;99.80;;;;;;5035381;28;20508;-75
2021/06/13 12:40:23;;;;;;;5.20;3.20;;;19.10;99.50;;;;;;5053323;28;20429;-77
2021/06/13 12:42:49;;;;;;;6.00;2.97;;;19.00;99.10;;;;;;5053410;28;20896;-76
2021/06/13 12:45:17;;;;;;;5.07;3.47;;;19.20;97.60;;;;;;5053325;28;20409;-76
2021/06/13 12:47:45;;;;;;;5.10;3.53;;;19.20;98.10;;;;;;5053254;28;20168;-76
2021/06/13 12:50:19;;;;;;;4.17;3.73;;;19.00;97.20;;;;;;5052945;28;20546;-76
2021/06/13 12:52:52;;;;;;;3.60;3.30;;;19.30;97.20;;;;;;5054687;28;20408;-76
2021/06/13 12:55:19;;;;;;;4.83;3.77;;;19.60;97.10;;;;;;5055579;28;20418;-77
2021/06/13 12:57:47;;;;;;;4.50;3.60;;;19.60;96.30;;;;;;5063156;28;20425;-75